Time;durP1;ratioP1;P1;durP2;ratioP2;P2;SDS_P1;SDS_P2;PMS_P1;PMS_P2;Temp;Humidity;BMP_temperature;BMP_pressure;BME280_temperature;BME280_humidity;BME280_pressure;Samples;Min_cycle;Max_cycle;Signal;HPM_P1;HPM_P2
2022/07/10 00:14:48;;;;;;;2.45;1.50;;;;;;;24.88;42.99;102646.88;4691803;30;20118;-88
2022/07/10 00:17:46;;;;;;;1.52;1.05;;;;;;;24.87;43.41;102654.03;4720421;30;20556;-88
2022/07/10 00:21:26;;;;;;;2.20;1.30;;;;;;;24.81;43.44;102646.72;4719176;30;20140;-88
2022/07/10 00:24:51;;;;;;;3.13;1.58;;;;;;;24.83;43.52;102638.56;4676743;30;20147;-89
2022/07/10 00:28:25;;;;;;;;;;;;;;;;;;;;;
2022/07/10 00:39:23;;;;;;;;;;;;;;;;;;;;;
2022/07/10 00:42:25;;;;;;;2.00;1.33;;;;;;;24.74;43.42;102640.38;4632232;30;20201;-90
2022/07/10 00:45:28;;;;;;;2.38;1.60;;;;;;;24.76;43.54;102638.38;4683561;30;20091;-88
2022/07/10 00:48:00;;;;;;;3.20;1.45;;;;;;;24.76;43.41;102621.56;4699269;30;20066;-90
2022/07/10 00:50:33;;;;;;;3.72;1.60;;;;;;;24.77;43.32;102626.72;4673617;30;20608;-89
2022/07/10 00:53:02;;;;;;;1.65;1.08;;;;;;;24.74;43.42;102636.91;4688407;30;20046;-89
2022/07/10 00:55:29;;;;;;;2.85;1.40;;;;;;;24.75;43.47;102626.06;4684935;30;20037;-89
2022/07/10 00:58:02;;;;;;;1.95;1.30;;;;;;;24.73;43.54;102630.75;4672510;30;20128;-89
2022/07/10 01:00:32;;;;;;;1.45;1.20;;;;;;;24.60;43.72;102614.47;4687403;30;20057;-89
2022/07/10 01:03:01;;;;;;;1.48;0.95;;;;;;;24.68;43.52;102617.09;4686126;30;20156;-88
2022/07/10 01:05:31;;;;;;;2.22;1.58;;;;;;;24.77;43.34;102626.72;4670194;30;20042;-89
2022/07/10 01:08:32;;;;;;;;;;;;;;;24.74;43.52;102620.91;4685046;30;20111;-88
2022/07/10 01:10:59;;;;;;;2.33;1.58;;;;;;;24.66;43.47;102603.94;4686107;30;19931;-89
2022/07/10 01:14:11;;;;;;;2.47;1.33;;;;;;;24.60;43.51;102585.16;4718373;30;20774;-87
2022/07/10 01:21:05;;;;;;;3.70;1.77;;;;;;;24.68;43.37;102598.44;4698119;30;20580;-88
2022/07/10 01:24:15;;;;;;;3.38;1.40;;;;;;;24.65;43.52;102594.31;4704539;30;20044;-88
2022/07/10 01:27:35;;;;;;;1.88;1.30;;;;;;;24.70;43.41;102589.28;4723706;30;20196;-88
2022/07/10 01:30:11;;;;;;;2.97;1.50;;;;;;;24.70;43.44;102594.63;4715515;30;20149;-88
2022/07/10 01:33:15;;;;;;;2.35;1.50;;;;;;;24.64;43.72;102597.13;4720277;30;20475;-88
2022/07/10 01:36:17;;;;;;;1.77;1.50;;;;;;;24.65;43.64;102590.81;4721056;30;20044;-88
2022/07/10 01:39:24;;;;;;;2.05;1.38;;;;;;;24.67;43.61;102591.47;4709932;30;20045;-89
2022/07/10 01:50:52;;;;;;;1.77;1.20;;;;;;;24.59;43.51;102586.97;4720667;30;20110;-88
2022/07/10 01:54:51;;;;;;;2.67;1.40;;;;;;;24.60;43.70;102580.66;4721658;30;20701;-88
2022/07/10 01:58:18;;;;;;;3.97;1.50;;;;;;;24.57;43.74;102578.31;4715758;30;20412;-88
2022/07/10 02:01:36;;;;;;;;;;;;;;;;;;;;;
2022/07/10 02:13:42;;;;;;;1.77;1.05;;;;;;;24.58;43.61;102572.00;4654693;30;20065;-89
2022/07/10 02:32:57;;;;;;;;;;;;;;;;;;;;;
2022/07/10 02:44:24;;;;;;;4.25;1.40;;;;;;;24.50;43.78;102556.03;4597239;31;20405;-87
2022/07/10 02:47:57;;;;;;;2.60;1.65;;;;;;;24.51;43.91;102555.03;4598869;30;20122;-87
2022/07/10 02:51:46;;;;;;;3.25;1.60;;;;;;;24.51;43.77;102548.88;4616844;30;20077;-87
2022/07/10 02:54:31;;;;;;;3.17;1.30;;;;;;;24.44;43.84;102538.09;4635632;30;20054;-89
2022/07/10 02:57:03;;;;;;;2.45;1.40;;;;;;;24.39;43.85;102538.56;4676128;30;20049;-89
2022/07/10 03:00:10;;;;;;;;;;;;;;;;;;;;;
2022/07/10 03:03:24;;;;;;;;;;;;;;;;;;;;;
2022/07/10 03:06:23;;;;;;;;;;;;;;;;;;;;;
2022/07/10 03:08:54;;;;;;;5.07;1.75;;;;;;;24.44;43.84;102556.72;4724043;30;20041;-89
2022/07/10 03:11:33;;;;;;;2.13;1.15;;;;;;;24.40;43.68;102553.53;4725189;30;20041;-89
2022/07/10 03:14:28;;;;;;;1.35;1.00;;;;;;;24.46;43.81;102561.88;4721265;30;20200;-88
2022/07/10 03:16:59;;;;;;;1.15;0.93;;;;;;;24.38;43.87;102552.88;4706307;30;20087;-88
2022/07/10 03:22:53;;;;;;;1.05;1.02;;;;;;;24.34;43.75;102548.91;4730078;30;20041;-88
2022/07/10 03:25:18;;;;;;;;;;;;;;;24.32;44.09;102556.22;4709128;30;20056;-88
2022/07/10 03:28:17;;;;;;;3.03;1.25;;;;;;;24.41;43.88;102549.88;4704941;30;19930;-87
2022/07/10 03:30:48;;;;;;;2.55;1.33;;;;;;;24.38;44.00;102554.72;4725084;30;20507;-87
2022/07/10 03:33:14;;;;;;;1.63;1.25;;;;;;;24.36;43.91;102546.91;4721925;30;20590;-87
2022/07/10 03:35:42;;;;;;;2.17;0.98;;;;;;;24.40;43.75;102550.88;4718103;30;20044;-88
2022/07/10 03:39:02;;;;;;;2.53;1.23;;;;;;;24.37;43.98;102550.38;4720260;30;20593;-88
2022/07/10 03:41:56;;;;;;;1.85;1.17;;;;;;;24.42;43.84;102550.75;4711857;30;20633;-88
2022/07/10 03:45:02;;;;;;;2.33;1.55;;;;;;;24.39;43.93;102541.22;4710180;30;20045;-87
2022/07/10 03:47:49;;;;;;;1.80;1.10;;;;;;;24.33;43.81;102539.25;4723744;30;20052;-88
2022/07/10 03:50:42;;;;;;;2.30;1.20;;;;;;;24.30;44.05;102539.59;4735421;30;20079;-87
2022/07/10 03:53:53;;;;;;;3.25;1.38;;;;;;;24.31;43.89;102535.94;4722712;30;20576;-88
2022/07/10 04:00:13;;;;;;;1.95;0.98;;;;;;;24.30;44.00;102541.44;4722433;30;20067;-88
2022/07/10 04:03:13;;;;;;;2.10;0.95;;;;;;;24.33;43.95;102535.75;4719314;30;20111;-89
2022/07/10 04:07:14;;;;;;;;;;;;;;;;;;;;;
2022/07/10 04:10:42;;;;;;;2.35;1.20;;;;;;;24.31;43.91;102535.94;4633988;30;20054;-88
2022/07/10 04:13:51;;;;;;;2.17;1.17;;;;;;;24.26;43.99;102535.56;4647742;30;20757;-88
2022/07/10 04:16:20;;;;;;;1.75;1.17;;;;;;;24.19;44.03;102512.44;4624239;30;20082;-87
2022/07/10 04:18:49;;;;;;;1.63;0.80;;;;;;;24.23;44.23;102521.75;4635583;30;20066;-87
2022/07/10 04:28:21;;;;;;;3.83;1.27;;;;;;;24.24;44.10;102537.59;4737037;30;20068;-88
2022/07/10 04:31:09;;;;;;;1.75;1.10;;;;;;;24.31;44.12;102537.75;4716157;30;20507;-87
2022/07/10 04:34:43;;;;;;;2.28;1.08;;;;;;;24.26;43.98;102540.91;4719302;30;20490;-88
2022/07/10 04:37:57;;;;;;;;;;;;;;;;;;;;;
2022/07/10 04:41:17;;;;;;;1.55;1.05;;;;;;;24.15;44.08;102519.09;4739679;30;20439;-87
2022/07/10 04:43:30;;;;;;;3.20;1.00;;;;;;;24.26;43.91;102522.28;4716801;30;20526;-87
2022/07/10 04:46:38;;;;;;;3.30;1.40;;;;;;;24.23;44.25;102530.56;4723025;30;20106;-89
2022/07/10 04:49:49;;;;;;;1.77;1.00;;;;;;;24.29;43.96;102526.44;4716700;30;20049;-87
2022/07/10 04:53:01;;;;;;;2.20;1.00;;;;;;;24.26;43.93;102524.94;4726291;30;20056;-88
2022/07/10 05:00:08;;;;;;;1.13;0.95;;;;;;;24.24;44.01;102520.78;4718368;30;20048;-88
2022/07/10 05:06:26;;;;;;;1.30;0.70;;;;;;;24.25;44.06;102514.44;4723346;30;20082;-87
2022/07/10 05:10:17;;;;;;;2.90;1.33;;;;;;;24.30;44.19;102520.97;4719806;30;20052;-88
2022/07/10 05:13:37;;;;;;;1.73;0.95;;;;;;;24.22;44.07;102515.59;4690157;30;20061;-87
2022/07/10 05:19:56;;;;;;;2.42;1.20;;;;;;;24.22;44.04;102520.09;4657226;30;20616;-89
2022/07/10 05:22:25;;;;;;;2.20;1.10;;;;;;;24.20;44.09;102524.75;4641033;30;20141;-88
2022/07/10 05:24:52;;;;;;;1.77;1.10;;;;;;;24.17;44.21;102522.44;4711503;30;20052;-89
2022/07/10 05:27:39;;;;;;;2.30;1.10;;;;;;;24.14;44.07;102515.63;4720926;30;20046;-88
2022/07/10 05:30:05;;;;;;;2.33;1.13;;;;;;;24.24;44.18;102528.75;4694575;30;20056;-88
2022/07/10 05:32:31;;;;;;;1.42;0.93;;;;;;;24.26;44.06;102530.25;4720170;30;20049;-89
2022/07/10 05:34:59;;;;;;;1.25;0.90;;;;;;;24.17;43.90;102511.78;4721539;30;20036;-89
2022/07/10 05:37:28;;;;;;;1.42;0.90;;;;;;;24.17;43.89;102517.94;4716457;30;20067;-88
2022/07/10 05:40:03;;;;;;;1.47;1.10;;;;;;;24.23;43.96;102529.72;4718932;30;20079;-87
2022/07/10 05:42:44;;;;;;;2.55;1.02;;;;;;;24.18;43.88;102516.94;4724057;30;20516;-86
2022/07/10 05:45:14;;;;;;;2.88;1.10;;;;;;;24.23;44.03;102524.41;4735938;30;20041;-86
2022/07/10 05:47:39;;;;;;;1.30;1.02;;;;;;;24.12;43.98;102504.31;4721027;30;20077;-88
2022/07/10 05:50:05;;;;;;;1.75;0.93;;;;;;;24.24;44.04;102523.44;4718989;30;20501;-88
2022/07/10 05:52:31;;;;;;;1.67;1.30;;;;;;;24.19;44.04;102517.78;4699902;30;20089;-88
2022/07/10 05:54:57;;;;;;;2.08;1.13;;;;;;;24.27;43.94;102528.41;4718993;30;20041;-88
2022/07/10 05:57:36;;;;;;;1.50;1.00;;;;;;;24.19;44.02;102528.41;4719610;30;20044;-88
2022/07/10 06:00:05;;;;;;;1.48;1.27;;;;;;;24.14;44.01;102512.13;4722450;30;20044;-89
2022/07/10 06:02:44;;;;;;;1.60;1.20;;;;;;;24.23;43.88;102530.56;4717013;30;20100;-87
2022/07/10 06:05:29;;;;;;;1.33;0.82;;;;;;;24.18;44.02;102529.41;4703267;30;20044;-87
2022/07/10 06:07:54;;;;;;;2.35;1.00;;;;;;;24.24;44.04;102539.41;4716551;30;20404;-89
2022/07/10 06:10:20;;;;;;;3.63;1.15;;;;;;;24.20;43.90;102530.91;4720074;30;20040;-89
2022/07/10 06:12:59;;;;;;;2.17;1.27;;;;;;;24.27;43.92;102545.22;4721168;30;20076;-87
2022/07/10 06:15:32;;;;;;;1.75;1.10;;;;;;;24.20;43.96;102538.91;4720070;30;20094;-88
2022/07/10 06:18:03;;;;;;;2.28;1.40;;;;;;;24.29;43.97;102545.09;4720765;30;20396;-87
2022/07/10 06:20:30;;;;;;;0.70;0.70;;;;;;;24.23;43.97;102541.22;4704041;30;20440;-88
2022/07/10 06:23:12;;;;;;;3.20;1.40;;;;;;;24.23;43.97;102545.72;4717501;30;21041;-88
2022/07/10 06:26:16;;;;;;;1.83;1.00;;;;;;;24.14;44.24;102557.38;4719735;30;20060;-88
2022/07/10 06:28:53;;;;;;;1.20;1.02;;;;;;;24.18;44.12;102551.53;4721368;30;20110;-86
2022/07/10 06:31:43;;;;;;;1.88;1.00;;;;;;;24.14;44.12;102552.03;4719343;30;20124;-86
2022/07/10 06:34:13;;;;;;;1.50;1.02;;;;;;;24.16;44.21;102558.03;4719641;30;20044;-87
2022/07/10 06:36:39;;;;;;;2.38;1.05;;;;;;;24.19;44.17;102553.19;4722928;30;20041;-87
2022/07/10 06:39:26;;;;;;;1.65;0.95;;;;;;;24.19;43.94;102547.88;4719195;30;20048;-87
2022/07/10 06:42:04;;;;;;;1.75;1.05;;;;;;;24.19;44.02;102547.03;4720377;30;20055;-87
2022/07/10 06:44:53;;;;;;;3.63;1.42;;;;;;;24.16;44.20;102550.03;4721889;30;20067;-87
2022/07/10 06:50:47;;;;;;;1.50;1.17;;;;;;;24.19;44.18;102544.38;4719019;30;20059;-89
2022/07/10 06:53:13;;;;;;;1.85;1.23;;;;;;;24.20;44.13;102536.22;4720612;30;20048;-88
2022/07/10 06:55:39;;;;;;;2.22;1.30;;;;;;;24.20;44.17;102543.38;4718991;30;20044;-88
2022/07/10 06:58:19;;;;;;;2.28;1.20;;;;;;;24.06;43.99;102526.28;4721743;30;20132;-87
2022/07/10 07:00:45;;;;;;;1.17;0.90;;;;;;;24.14;44.24;102546.72;4715390;30;20051;-86
2022/07/10 07:03:14;;;;;;;2.60;1.13;;;;;;;24.15;44.17;102554.53;4719420;30;20044;-87
2022/07/10 07:05:40;;;;;;;2.63;1.35;;;;;;;24.22;44.12;102560.03;4716044;30;20115;-85
2022/07/10 07:08:05;;;;;;;2.58;1.27;;;;;;;24.14;44.33;102560.03;4719025;30;20127;-87
2022/07/10 07:10:31;;;;;;;1.70;1.20;;;;;;;24.08;44.31;102553.56;4716622;30;20056;-88
2022/07/10 07:12:57;;;;;;;2.22;1.27;;;;;;;24.14;44.33;102552.03;4707637;30;20277;-87
2022/07/10 07:15:25;;;;;;;2.00;1.10;;;;;;;24.11;44.21;102542.56;4722257;30;20090;-88
2022/07/10 07:18:11;;;;;;;1.73;0.90;;;;;;;24.15;44.27;102543.91;4716684;30;20129;-86
2022/07/10 07:23:22;;;;;;;1.33;0.95;;;;;;;24.10;44.37;102548.91;4717132;30;20040;-86
2022/07/10 07:25:51;;;;;;;2.17;1.50;;;;;;;24.15;44.14;102543.06;4718438;30;20697;-86
2022/07/10 07:28:41;;;;;;;1.52;1.33;;;;;;;24.09;44.31;102536.59;4717948;30;20044;-86
2022/07/10 07:31:08;;;;;;;3.17;1.52;;;;;;;24.10;44.37;102548.91;4721184;30;20559;-87
2022/07/10 07:34:00;;;;;;;2.50;1.10;;;;;;;24.15;44.35;102546.56;4718642;30;20037;-87
2022/07/10 07:36:47;;;;;;;1.67;1.10;;;;;;;24.24;44.28;102550.06;4720362;30;20126;-86
2022/07/10 07:39:39;;;;;;;2.17;1.30;;;;;;;24.16;44.12;102547.38;4701836;30;20088;-87
2022/07/10 07:42:08;;;;;;;1.92;1.10;;;;;;;24.14;44.37;102546.72;4719619;30;20589;-87
2022/07/10 07:44:40;;;;;;;1.88;1.27;;;;;;;24.14;44.34;102552.03;4705604;30;20106;-87
2022/07/10 07:47:23;;;;;;;1.95;1.08;;;;;;;24.16;44.40;102550.88;4716544;30;20045;-88
2022/07/10 07:49:49;;;;;;;2.15;1.08;;;;;;;24.16;44.32;102547.38;4716859;30;20036;-88
2022/07/10 07:52:18;;;;;;;1.42;1.00;;;;;;;24.11;44.24;102548.72;4715653;30;20060;-87
2022/07/10 07:54:51;;;;;;;2.63;1.60;;;;;;;24.08;44.31;102548.22;4718387;30;20074;-87
2022/07/10 07:57:17;;;;;;;1.88;1.05;;;;;;;24.10;44.44;102551.56;4721403;30;20086;-88
2022/07/10 07:59:43;;;;;;;2.22;1.20;;;;;;;24.16;44.35;102561.53;4724809;30;20060;-86
2022/07/10 08:02:09;;;;;;;2.15;1.23;;;;;;;24.14;44.33;102558.19;4722418;30;20060;-86
2022/07/10 08:04:34;;;;;;;2.38;1.25;;;;;;;24.06;44.42;102539.59;4723075;30;20064;-84
2022/07/10 08:07:02;;;;;;;3.25;1.30;;;;;;;24.17;44.26;102557.03;4723263;30;20044;-84
2022/07/10 08:09:27;;;;;;;1.42;1.17;;;;;;;24.08;44.34;102545.56;4724228;30;20052;-83
2022/07/10 08:11:53;;;;;;;1.40;0.90;;;;;;;24.15;44.37;102553.72;4721958;30;20097;-83
2022/07/10 08:14:18;;;;;;;1.90;1.00;;;;;;;24.21;43.96;102553.03;4723934;30;20056;-83
2022/07/10 08:16:44;;;;;;;2.50;1.05;;;;;;;24.12;44.46;102552.22;4722854;30;20798;-83
2022/07/10 08:19:10;;;;;;;1.25;1.05;;;;;;;24.18;44.35;102548.88;4722325;30;20044;-81
2022/07/10 08:21:35;;;;;;;1.75;1.05;;;;;;;24.20;44.47;102548.72;4726556;30;20045;-84
2022/07/10 08:24:01;;;;;;;3.28;1.35;;;;;;;24.02;44.49;102541.72;4707919;30;20047;-85
2022/07/10 08:26:27;;;;;;;2.03;1.00;;;;;;;24.24;44.29;102555.38;4723043;30;20048;-85
2022/07/10 08:28:52;;;;;;;3.15;1.65;;;;;;;24.16;44.34;102553.53;4723488;30;20048;-83
2022/07/10 08:31:18;;;;;;;2.60;1.55;;;;;;;24.12;44.27;102538.91;4722532;30;20040;-84
2022/07/10 08:33:47;;;;;;;2.28;1.15;;;;;;;24.18;44.36;102551.53;4721026;30;20716;-83
2022/07/10 08:36:16;;;;;;;1.45;0.88;;;;;;;24.21;44.45;102564.50;4723180;30;20121;-82
2022/07/10 08:38:44;;;;;;;2.25;1.08;;;;;;;24.16;44.52;102553.53;4722282;30;20143;-83
2022/07/10 08:41:14;;;;;;;1.23;1.13;;;;;;;24.13;44.54;102545.91;4721307;30;20051;-83
2022/07/10 08:43:39;;;;;;;1.40;1.10;;;;;;;24.19;44.26;102547.03;4722960;30;20049;-83
2022/07/10 08:46:06;;;;;;;1.67;1.10;;;;;;;24.08;44.33;102529.59;4721179;30;20041;-83
2022/07/10 08:48:36;;;;;;;1.23;0.80;;;;;;;24.15;44.46;102551.88;4723945;30;20052;-83
2022/07/10 08:51:07;;;;;;;1.58;0.80;;;;;;;24.17;44.50;102552.53;4718820;30;20059;-83
2022/07/10 08:53:32;;;;;;;2.05;0.88;;;;;;;24.19;44.39;102553.19;4721901;30;20051;-83
2022/07/10 08:55:59;;;;;;;1.45;1.10;;;;;;;24.19;44.37;102542.56;4720958;30;20036;-84
2022/07/10 08:58:26;;;;;;;0.80;0.80;;;;;;;24.21;44.47;102550.38;4719872;30;20102;-83
2022/07/10 09:00:53;;;;;;;3.03;0.95;;;;;;;24.22;44.34;102552.03;4716866;30;20055;-85
2022/07/10 09:03:20;;;;;;;1.27;1.17;;;;;;;24.05;44.57;102522.75;4723873;30;20090;-84
2022/07/10 09:05:46;;;;;;;2.08;1.17;;;;;;;24.19;44.42;102545.22;4722947;30;20206;-85
2022/07/10 09:08:37;;;;;;;1.35;0.90;;;;;;;24.19;44.40;102539.91;4723396;30;20052;-84
2022/07/10 09:11:28;;;;;;;2.28;1.23;;;;;;;24.07;44.43;102534.09;4721335;30;20041;-84
2022/07/10 09:14:07;;;;;;;2.45;1.25;;;;;;;24.11;44.61;102539.91;4720867;30;20544;-85
2022/07/10 09:16:59;;;;;;;1.33;1.08;;;;;;;24.14;44.50;102536.06;4723529;30;20037;-84
2022/07/10 09:19:29;;;;;;;1.60;1.00;;;;;;;24.21;44.17;102540.56;4720821;30;20047;-84
2022/07/10 09:22:04;;;;;;;0.88;0.85;;;;;;;24.15;44.34;102535.06;4708565;30;20066;-85
2022/07/10 09:24:44;;;;;;;2.55;1.17;;;;;;;24.18;44.41;102542.72;4721790;30;20058;-86
2022/07/10 09:27:11;;;;;;;2.00;1.02;;;;;;;24.14;44.65;102542.22;4720122;30;20056;-83
2022/07/10 09:29:56;;;;;;;2.17;1.35;;;;;;;24.13;44.38;102543.22;4723375;30;20131;-85
2022/07/10 09:32:22;;;;;;;1.40;1.25;;;;;;;24.14;44.58;102550.22;4727580;30;20056;-85
2022/07/10 09:36:04;;;;;;;1.65;0.90;;;;;;;24.40;44.12;102548.22;4684812;30;20048;-87
2022/07/10 09:37:39;;;;;;;1.15;1.02;;;;;;;24.56;43.80;102546.53;4714691;30;20060;-85
2022/07/10 09:40:07;;;;;;;2.22;1.08;;;;;;;24.49;44.14;102541.06;4717717;30;20052;-85
2022/07/10 09:42:36;;;;;;;0.80;0.70;;;;;;;24.60;44.17;102554.03;4700527;30;20040;-79
2022/07/10 09:45:17;;;;;;;5.03;1.50;;;;;;;24.68;43.51;102554.00;4716855;30;20400;-84
2022/07/10 09:47:51;;;;;;;3.97;1.25;;;;;;;24.74;44.00;102548.97;4719852;30;20059;-85
2022/07/10 09:50:27;;;;;;;2.58;1.08;;;;;;;24.73;43.99;102557.97;4709740;30;20123;-86
2022/07/10 09:53:02;;;;;;;2.53;0.80;;;;;;;24.65;44.20;102564.16;4708144;30;20404;-83
2022/07/10 09:55:37;;;;;;;3.55;1.10;;;;;;;24.81;44.30;102564.13;4721886;30;20080;-80
2022/07/10 09:58:07;;;;;;;2.85;1.08;;;;;;;24.88;44.35;102565.09;4725101;30;20036;-81
2022/07/10 10:00:35;;;;;;;2.22;1.05;;;;;;;24.90;43.97;102555.09;4724765;30;20036;-84
2022/07/10 10:03:02;;;;;;;3.90;1.45;;;;;;;24.96;44.13;102566.91;4721477;30;20086;-86
2022/07/10 10:05:42;;;;;;;2.25;0.90;;;;;;;25.00;44.21;102568.25;4718362;30;20040;-86
2022/07/10 10:08:18;;;;;;;1.05;0.82;;;;;;;25.02;44.00;102560.09;4691717;30;20037;-79
2022/07/10 10:10:49;;;;;;;3.10;1.20;;;;;;;25.03;43.92;102561.75;4719954;30;20048;-85
2022/07/10 10:13:25;;;;;;;1.92;1.17;;;;;;;24.99;44.15;102567.44;4717331;30;20542;-85
2022/07/10 10:15:51;;;;;;;2.80;0.90;;;;;;;25.03;44.47;102569.75;4719874;30;20068;-83
2022/07/10 10:18:25;;;;;;;2.33;1.17;;;;;;;25.02;44.64;102568.09;4722916;30;20039;-82
2022/07/10 10:20:53;;;;;;;4.60;1.52;;;;;;;25.08;44.38;102565.56;4703343;30;20386;-85
2022/07/10 10:23:24;;;;;;;3.05;1.13;;;;;;;25.09;44.42;102567.22;4698387;30;20064;-83
2022/07/10 10:25:56;;;;;;;1.77;0.95;;;;;;;25.06;44.49;102562.22;4691988;30;20071;-83
2022/07/10 10:28:26;;;;;;;6.85;1.25;;;;;;;25.03;44.58;102551.09;4719781;30;20044;-83
2022/07/10 10:30:58;;;;;;;1.83;0.93;;;;;;;25.02;44.46;102554.75;4705956;30;20787;-80
2022/07/10 10:33:37;;;;;;;6.10;1.55;;;;;;;25.09;44.62;102561.03;4717887;30;20048;-83
2022/07/10 10:36:04;;;;;;;4.32;1.63;;;;;;;25.24;44.28;102552.16;4715011;30;20040;-82
2022/07/10 10:38:46;;;;;;;3.33;1.20;;;;;;;25.25;44.00;102552.97;4721364;30;20049;-81
2022/07/10 10:41:25;;;;;;;5.35;1.40;;;;;;;25.29;44.08;102544.44;4693902;30;20164;-80
2022/07/10 10:44:06;;;;;;;1.98;1.40;;;;;;;25.27;44.15;102548.28;4720790;30;20382;-81
2022/07/10 10:46:32;;;;;;;3.17;1.27;;;;;;;25.19;44.56;102535.84;4713459;30;20074;-80
2022/07/10 10:49:08;;;;;;;1.50;1.20;;;;;;;25.22;44.35;102538.16;4719468;30;20762;-81
2022/07/10 10:51:56;;;;;;;3.90;1.45;;;;;;;25.29;44.22;102538.28;4718935;30;20140;-80
2022/07/10 10:54:22;;;;;;;2.55;0.98;;;;;;;25.25;44.19;102532.47;4705295;30;20146;-82
2022/07/10 10:57:14;;;;;;;2.53;1.10;;;;;;;25.26;44.25;102533.31;4695463;30;20896;-80
2022/07/10 10:59:49;;;;;;;3.83;1.38;;;;;;;25.27;44.32;102537.63;4712886;30;20072;-82
2022/07/10 11:02:24;;;;;;;2.13;1.00;;;;;;;25.27;44.25;102534.97;4718726;30;20060;-83
2022/07/10 11:04:50;;;;;;;1.65;1.30;;;;;;;25.30;44.11;102534.63;4717803;30;20053;-83
2022/07/10 11:07:53;;;;;;;3.90;1.25;;;;;;;25.32;44.09;102529.13;4716277;30;20052;-82
2022/07/10 11:10:26;;;;;;;1.63;1.10;;;;;;;25.27;44.24;102517.13;4732705;30;20044;-82
2022/07/10 11:13:05;;;;;;;2.75;1.30;;;;;;;25.33;43.77;102531.63;4702629;30;20082;-82
2022/07/10 11:15:32;;;;;;;2.08;0.90;;;;;;;25.35;44.00;102524.28;4703955;30;20055;-82
2022/07/10 11:18:12;;;;;;;1.58;1.05;;;;;;;25.43;43.53;102532.22;4719175;30;20397;-82
2022/07/10 11:20:41;;;;;;;3.63;1.42;;;;;;;25.42;43.59;102527.06;4718452;30;20653;-82
2022/07/10 11:23:28;;;;;;;4.03;1.40;;;;;;;25.42;43.61;102535.88;4712499;30;20226;-82
2022/07/10 11:26:10;;;;;;;2.75;1.20;;;;;;;25.43;43.73;102526.03;4718354;30;20043;-82
2022/07/10 11:28:53;;;;;;;1.25;0.80;;;;;;;25.40;43.59;102527.22;4715742;30;20122;-82
2022/07/10 11:31:20;;;;;;;2.33;1.20;;;;;;;25.40;43.55;102516.56;4699067;30;20067;-81
2022/07/10 11:33:48;;;;;;;1.23;1.10;;;;;;;25.40;43.69;102519.22;4722032;30;20515;-82
2022/07/10 11:36:16;;;;;;;1.45;1.00;;;;;;;25.36;43.78;102517.94;4716387;30;20053;-82
2022/07/10 11:38:42;;;;;;;1.65;1.10;;;;;;;25.40;43.83;102524.56;4720295;30;20743;-82
2022/07/10 11:41:19;;;;;;;1.77;1.25;;;;;;;25.37;43.93;102519.59;4719546;30;20041;-82
2022/07/10 11:43:55;;;;;;;1.65;1.20;;;;;;;25.37;43.95;102519.59;4719428;30;20098;-83
2022/07/10 11:46:24;;;;;;;1.50;0.95;;;;;;;25.35;43.64;102520.78;4705888;30;21113;-82
2022/07/10 11:48:56;;;;;;;2.05;1.38;;;;;;;25.35;43.77;102529.59;4705302;30;20403;-82
2022/07/10 11:51:31;;;;;;;1.65;1.08;;;;;;;25.36;43.95;102527.75;4717990;30;20121;-84
2022/07/10 11:54:15;;;;;;;2.17;1.15;;;;;;;25.32;43.80;102526.47;4718893;30;20048;-85
2022/07/10 11:56:46;;;;;;;2.60;1.10;;;;;;;25.33;43.85;102520.94;4723574;30;20823;-85
2022/07/10 11:59:14;;;;;;;0.90;0.85;;;;;;;25.39;43.66;102530.91;4725518;30;20083;-85
2022/07/10 12:01:46;;;;;;;2.88;1.38;;;;;;;25.37;43.70;102540.09;4712041;30;20056;-86
2022/07/10 12:04:14;;;;;;;1.63;1.00;;;;;;;25.37;43.85;102537.44;4711907;30;20192;-85
2022/07/10 12:06:42;;;;;;;1.60;1.20;;;;;;;25.40;43.83;102532.56;4723858;30;20072;-84
2022/07/10 12:09:09;;;;;;;0.68;0.68;;;;;;;25.39;43.44;102532.75;4724428;30;20120;-84
2022/07/10 12:11:36;;;;;;;1.65;0.85;;;;;;;25.40;43.87;102543.22;4722028;30;20914;-85
2022/07/10 12:14:19;;;;;;;1.33;1.13;;;;;;;25.40;43.76;102535.22;4719767;30;20072;-84
2022/07/10 12:16:51;;;;;;;1.40;1.25;;;;;;;25.38;43.82;102531.91;4722499;30;20119;-85
2022/07/10 12:19:36;;;;;;;1.35;1.20;;;;;;;25.40;43.61;102535.22;4697251;30;20040;-83
2022/07/10 12:22:01;;;;;;;1.85;1.40;;;;;;;25.46;43.64;102542.53;4737312;30;20052;-83
2022/07/10 12:24:27;;;;;;;1.25;1.00;;;;;;;25.42;43.54;102541.22;4719610;30;20048;-85
2022/07/10 12:26:55;;;;;;;1.80;0.95;;;;;;;25.40;43.75;102537.06;4718050;30;20512;-84
2022/07/10 12:29:28;;;;;;;2.13;1.30;;;;;;;25.39;43.72;102536.25;4720862;30;20489;-86
2022/07/10 12:31:56;;;;;;;1.85;1.17;;;;;;;25.34;43.56;102527.13;4736021;30;20053;-85
2022/07/10 12:34:36;;;;;;;2.10;1.10;;;;;;;25.45;43.36;102537.38;4697148;30;20045;-86
2022/07/10 12:37:09;;;;;;;1.45;1.20;;;;;;;25.42;43.38;102538.56;4711651;30;20378;-85
2022/07/10 12:39:48;;;;;;;2.78;1.30;;;;;;;25.45;43.71;102545.38;4721258;30;20940;-87
2022/07/10 12:42:27;;;;;;;1.33;0.93;;;;;;;25.45;43.43;102543.53;4718584;30;20450;-87
2022/07/10 12:44:53;;;;;;;2.45;1.45;;;;;;;25.48;43.56;102542.34;4714271;30;20048;-86
2022/07/10 12:47:20;;;;;;;1.40;1.27;;;;;;;25.46;43.43;102537.19;4714266;30;20111;-86
2022/07/10 12:49:53;;;;;;;2.28;1.33;;;;;;;25.50;43.63;102543.84;4706670;30;21561;-86
2022/07/10 12:52:24;;;;;;;2.03;1.38;;;;;;;25.43;43.38;102542.88;4705095;30;20127;-84
2022/07/10 12:55:06;;;;;;;1.13;1.00;;;;;;;25.39;43.34;102528.25;4718176;30;20068;-84
2022/07/10 12:57:32;;;;;;;1.75;1.48;;;;;;;25.49;43.35;102544.81;4720073;30;20618;-86
2022/07/10 13:00:07;;;;;;;2.47;1.40;;;;;;;25.47;43.27;102532.69;4722556;30;20036;-85
2022/07/10 13:02:32;;;;;;;3.85;1.50;;;;;;;25.47;43.58;102536.19;4705176;30;20056;-85
2022/07/10 13:04:58;;;;;;;1.90;1.20;;;;;;;25.45;43.44;102538.19;4706599;30;20079;-85
2022/07/10 13:07:35;;;;;;;1.83;1.60;;;;;;;25.47;43.47;102538.84;4695735;30;20048;-86
2022/07/10 13:10:06;;;;;;;1.35;1.20;;;;;;;25.48;43.61;102543.16;4711559;30;20061;-84
2022/07/10 13:12:35;;;;;;;2.35;1.38;;;;;;;25.45;43.43;102543.53;4719218;30;20639;-85
2022/07/10 13:15:04;;;;;;;2.15;1.25;;;;;;;25.42;43.45;102537.72;4723107;30;20048;-85
2022/07/10 13:17:29;;;;;;;1.77;1.10;;;;;;;25.44;43.67;102544.53;4721482;30;20036;-85
2022/07/10 13:19:56;;;;;;;1.85;1.15;;;;;;;25.39;43.29;102533.56;4720129;30;20040;-86
2022/07/10 13:22:21;;;;;;;2.38;1.23;;;;;;;25.47;43.49;102546.00;4704093;30;20052;-85
2022/07/10 13:24:47;;;;;;;2.25;1.52;;;;;;;25.52;43.47;102554.34;4705182;30;20054;-86
2022/07/10 13:27:12;;;;;;;2.20;1.42;;;;;;;25.52;43.34;102554.34;4722629;30;20045;-85
2022/07/10 13:29:38;;;;;;;1.10;0.90;;;;;;;25.47;43.38;102546.84;4717112;30;20048;-85
2022/07/10 13:32:04;;;;;;;1.58;1.30;;;;;;;25.53;43.45;102556.84;4719940;30;20140;-85
2022/07/10 13:34:29;;;;;;;1.90;1.40;;;;;;;25.45;43.51;102543.53;4716835;30;20207;-85
2022/07/10 13:36:55;;;;;;;1.23;1.00;;;;;;;25.52;43.19;102543.69;4716082;30;20048;-86
2022/07/10 13:39:21;;;;;;;1.80;1.25;;;;;;;25.45;43.50;102542.69;4693351;30;20080;-85
2022/07/10 13:41:47;;;;;;;1.65;1.08;;;;;;;25.41;43.45;102534.22;4704952;30;20171;-85
2022/07/10 13:44:12;;;;;;;1.17;1.08;;;;;;;25.50;43.21;102546.53;4721178;30;20079;-85
2022/07/10 13:46:40;;;;;;;1.48;1.10;;;;;;;25.51;43.03;102539.34;4721994;30;20148;-83
2022/07/10 13:49:06;;;;;;;1.13;1.02;;;;;;;25.51;43.39;102540.19;4720380;30;20078;-83
2022/07/10 13:51:31;;;;;;;1.63;1.30;;;;;;;25.51;43.48;102544.69;4701343;30;20283;-84
2022/07/10 13:53:57;;;;;;;2.25;1.30;;;;;;;25.51;43.33;102542.00;4703311;30;20053;-84
2022/07/10 13:56:23;;;;;;;1.50;1.30;;;;;;;25.49;43.37;102542.16;4705880;30;20126;-84
2022/07/10 13:58:49;;;;;;;1.40;1.30;;;;;;;25.47;43.32;102530.84;4721518;30;20047;-83
2022/07/10 14:01:14;;;;;;;2.30;1.30;;;;;;;25.51;43.31;102534.84;4720438;30;20044;-83
2022/07/10 14:03:40;;;;;;;3.35;1.40;;;;;;;25.48;43.34;102537.84;4715410;30;20052;-84
2022/07/10 14:06:06;;;;;;;1.83;1.30;;;;;;;25.51;43.29;102542.00;4717198;30;20048;-84
2022/07/10 14:08:31;;;;;;;1.60;1.25;;;;;;;25.51;43.44;102537.50;4717122;30;20080;-85
2022/07/10 14:10:57;;;;;;;1.75;1.52;;;;;;;25.49;43.28;102536.00;4711611;30;20049;-85